Middle Georgia Regional Airport
KMCN : now visible

Airfield :











YOU CAN JOIN US ON...

 
LOGIN :

Register | Disclaimer

   EN    FR    IT 

 









Legend :    VFR   Marginal VFR   IFR   Intensive IFR   Very Intensive IFR
Visi :
Ceiling :
>= 8 km
>= 3000ft
5 to 8 km
1000 to 3000 ft
1500m to 5 km
500 to 1000 ft
800 to 1500m
200 to 500 ft
< 800m
< 200 ft
Symbols :   Thunderstorms  Fog  Heavy snow  Heavy precipitations  Wind > 20 kt






- Airport Elevation : 354 ft
- IATA code : MCN


KMCN - Middle Georgia Regional

CURRENT METAR :
  • 081853Z 27010KT 10SM FEW075 29/21 A2984 RMK AO2 SLP102 T02890206

EXPIRED METARs :
  • 081753Z 28007KT 10SM FEW024 SCT034 28/20 A2987 RMK AO2 SLP111 T02830200 10283 20167 58015
  • 081653Z 29010KT 10SM FEW019 SCT030 BKN036 27/20 A2989 RMK AO2 SLP116 T02720200

TAF KMCN
Valid from the 08 at 18:00 until the 09 at 18:00 UTC


081731Z 0818/0918 28009KT P6SM VCSH BKN025
TEMPO 0822/0902 5SM TSRA BKN035CB
FM090200 25006KT P6SM SCT040 BKN250
FM090900 26008KT P6SM VCSH SCT008 OVC015
PROB30 0910/0912 VRB20G30KT 4SM TSRA BKN008 OVC015CB
FM091400 29011G20KT P6SM VCSH BKN025
FM091600 30015G22KT P6SM SCT035



MET'MAP, your aeronautical weather chart ! - Copyright ORBIFLY December 2007 - Disclaimer

ORBIFLY MET'MAP TEAM :

Programming & Development : Alexandra Zaïnal
Concept & original design : Baudouin d'Aumeries
Assistance for programming : Marc-Olivier Méhu
Technical & hardware support : Manuel Goepfert

Contact : metmap@orbifly.com




SOURCES & CREDITS :

   NOAA       Earth
Advisory